Solemar — ZCIR3 — position and weather

sailwx.info

Track history (hours):
 
Tides and Currents Weather Stations Pressure Air Temp Water Temp Dewpoint Dewpoint Depression Visibility Wind Speed Wind Dir Waves Ship Positions

Solemar

Last reported at 2015-May-17 08:27 UTC. Time now 2015-Aug-30 14:00 UTC.
Position N 42°36' E 018°06'.
Warning: this ship's position is months out of date.

Length 62 m; draft 3.6 m.

Type: Pleasure craft. MMSI: 319868000.

Date/timePositionNaut miles runAvg speedWind from/ knotsBaromVisibWave heightAir tempDewpointWater temp
2015-May-17 08:27N 42°36' E 018°06'1112.6
2015-May-17 07:33N 42°28' E 018°17'1312.7
2015-May-17 06:33N 42°21' E 018°31'1212.3
2015-May-17 05:33N 42°14' E 018°44'1211.6
2015-May-17 04:33N 42°07' E 018°57'132 6.2
2015-May-16 07:23N 39°57' E 018°31'1213.5
2015-May-16 06:31N 39°46' E 018°25'1312.7
2015-May-16 05:31N 39°37' E 018°14'2612.5
2015-May-16 03:24N 39°17' E 017°51'1112.6
2015-May-16 02:33N 39°10' E 017°40'1212.5
2015-May-16 01:34N 39°01' E 017°29'1712.3
2015-May-16 00:09N 38°48' E 017°14'812.4
2015-May-15 23:29N 38°42' E 017°07'78 9.5
2015-May-15 15:15N 38°11' E 015°35'9 9.2
2015-May-15 14:14N 38°20' E 015°39'8211.9
2015-May-15 07:19N 39°22' E 014°31'1011.9
2015-May-15 06:28N 39°30' E 014°22'3712.0
2015-May-15 03:21N 39°59' E 013°51'2111.5
2015-May-15 01:33N 40°15' E 013°34'4911.7
2015-May-14 21:24N 40°51' E 012°52'1011.7
2015-May-14 20:31N 40°60' E 012°45'1211.7
2015-May-14 19:29N 41°10' E 012°37'1111.6
2015-May-14 18:31N 41°20' E 012°29'  
2015-May-09 00:11N 42°58' E 010°26'711.6
2015-May-08 23:33N 43°04' E 010°23'1211.7
2015-May-08 22:33N 43°15' E 010°18'1212.0
2015-May-08 21:33N 43°26' E 010°12'1110.9
2015-May-08 20:33N 43°37' E 010°09'6 5.7
2015-May-08 19:33N 43°41' E 010°16'0 0.0
2015-May-08 18:33N 43°41' E 010°16'0 0.0
2015-May-08 17:30N 43°41' E 010°16'0 0.0
2015-May-08 16:33N 43°41' E 010°16'0 0.0
2015-May-08 15:33N 43°41' E 010°16'0 0.0
2015-May-08 14:33N 43°41' E 010°16'0 0.0
2015-May-08 13:33N 43°41' E 010°16'0 0.0
2015-May-08 12:30N 43°41' E 010°16'0 0.0
2015-May-08 11:33N 43°40' E 010°16'0 0.0
2015-May-08 10:33N 43°41' E 010°16'0 0.0
2015-May-08 09:33N 43°41' E 010°16'0 0.0
2015-May-08 08:30N 43°41' E 010°16'0 0.0
2015-May-08 07:33N 43°41' E 010°16'0 0.0
2015-May-08 06:33N 43°41' E 010°16'0 0.0
2015-May-08 05:33N 43°41' E 010°16'0 0.0
2015-May-08 04:33N 43°41' E 010°16'0 0.0
2015-May-08 03:33N 43°41' E 010°16'0 0.0
2015-May-08 02:33N 43°41' E 010°16'0 0.0
2015-May-08 01:33N 43°41' E 010°16'0 0.0
2015-May-08 00:33N 43°41' E 010°16'0 0.0
2015-May-07 23:33N 43°41' E 010°16'0 0.0
2015-May-07 22:33N 43°41' E 010°16'0 0.0
2015-May-07 21:33N 43°41' E 010°16'0 0.0
2015-May-07 20:30N 43°41' E 010°16'0 0.0
2015-May-07 19:33N 43°41' E 010°16'0 0.0
2015-May-07 18:33N 43°41' E 010°16'0 0.0
2015-May-07 17:33N 43°41' E 010°16'0 0.0
2015-May-07 16:33N 43°41' E 010°16'0 0.0
2015-May-07 15:33N 43°41' E 010°16'0 0.0
2015-May-07 14:30N 43°41' E 010°16'0 0.0
2015-May-07 13:33N 43°41' E 010°16'0 0.0
2015-May-07 12:33N 43°41' E 010°16'0 0.0
2015-May-07 11:33N 43°41' E 010°16'0 0.0
2015-May-07 10:33N 43°41' E 010°16'6 6.1
2015-May-07 09:33N 43°45' E 010°10'1110.8
2015-May-07 08:34N 43°56' E 010°09'  
Track history (hours):
 
Tides and Currents Weather Stations Pressure Air Temp Water Temp Dewpoint Dewpoint Depression Visibility Wind Speed Wind Dir Waves Ship Positions

Solemar

Last reported at 2015-May-17 08:27 UTC. Time now 2015-Aug-30 14:00 UTC.
Position N 42°36' E 018°06'.
Warning: this ship's position is months out of date.

Length 62 m; draft 3.6 m.

Type: Pleasure craft. MMSI: 319868000.

Date/timePositionNaut miles runAvg speedWind from/ knotsBaromVisibWave heightAir tempDewpointWater temp
2015-May-17 08:27N 42°36' E 018°06'1112.6
2015-May-17 07:33N 42°28' E 018°17'1312.7
2015-May-17 06:33N 42°21' E 018°31'1212.3
2015-May-17 05:33N 42°14' E 018°44'1211.6
2015-May-17 04:33N 42°07' E 018°57'132 6.2
2015-May-16 07:23N 39°57' E 018°31'1213.5
2015-May-16 06:31N 39°46' E 018°25'1312.7
2015-May-16 05:31N 39°37' E 018°14'2612.5
2015-May-16 03:24N 39°17' E 017°51'1112.6
2015-May-16 02:33N 39°10' E 017°40'1212.5
2015-May-16 01:34N 39°01' E 017°29'1712.3
2015-May-16 00:09N 38°48' E 017°14'812.4
2015-May-15 23:29N 38°42' E 017°07'78 9.5
2015-May-15 15:15N 38°11' E 015°35'9 9.2
2015-May-15 14:14N 38°20' E 015°39'8211.9
2015-May-15 07:19N 39°22' E 014°31'1011.9
2015-May-15 06:28N 39°30' E 014°22'3712.0
2015-May-15 03:21N 39°59' E 013°51'2111.5
2015-May-15 01:33N 40°15' E 013°34'4911.7
2015-May-14 21:24N 40°51' E 012°52'1011.7
2015-May-14 20:31N 40°60' E 012°45'1211.7
2015-May-14 19:29N 41°10' E 012°37'1111.6
2015-May-14 18:31N 41°20' E 012°29'  
2015-May-09 00:11N 42°58' E 010°26'711.6
2015-May-08 23:33N 43°04' E 010°23'1211.7
2015-May-08 22:33N 43°15' E 010°18'1212.0
2015-May-08 21:33N 43°26' E 010°12'1110.9
2015-May-08 20:33N 43°37' E 010°09'6 5.7
2015-May-08 19:33N 43°41' E 010°16'0 0.0
2015-May-08 18:33N 43°41' E 010°16'0 0.0
2015-May-08 17:30N 43°41' E 010°16'0 0.0
2015-May-08 16:33N 43°41' E 010°16'0 0.0
2015-May-08 15:33N 43°41' E 010°16'0 0.0
2015-May-08 14:33N 43°41' E 010°16'0 0.0
2015-May-08 13:33N 43°41' E 010°16'0 0.0
2015-May-08 12:30N 43°41' E 010°16'0 0.0
2015-May-08 11:33N 43°40' E 010°16'0 0.0
2015-May-08 10:33N 43°41' E 010°16'0 0.0
2015-May-08 09:33N 43°41' E 010°16'0 0.0
2015-May-08 08:30N 43°41' E 010°16'0 0.0
2015-May-08 07:33N 43°41' E 010°16'0 0.0
2015-May-08 06:33N 43°41' E 010°16'0 0.0
2015-May-08 05:33N 43°41' E 010°16'0 0.0
2015-May-08 04:33N 43°41' E 010°16'0 0.0
2015-May-08 03:33N 43°41' E 010°16'0 0.0
2015-May-08 02:33N 43°41' E 010°16'0 0.0
2015-May-08 01:33N 43°41' E 010°16'0 0.0
2015-May-08 00:33N 43°41' E 010°16'0 0.0
2015-May-07 23:33N 43°41' E 010°16'0 0.0
2015-May-07 22:33N 43°41' E 010°16'0 0.0
2015-May-07 21:33N 43°41' E 010°16'0 0.0
2015-May-07 20:30N 43°41' E 010°16'0 0.0
2015-May-07 19:33N 43°41' E 010°16'0 0.0
2015-May-07 18:33N 43°41' E 010°16'0 0.0
2015-May-07 17:33N 43°41' E 010°16'0 0.0
2015-May-07 16:33N 43°41' E 010°16'0 0.0
2015-May-07 15:33N 43°41' E 010°16'0 0.0
2015-May-07 14:30N 43°41' E 010°16'0 0.0
2015-May-07 13:33N 43°41' E 010°16'0 0.0
2015-May-07 12:33N 43°41' E 010°16'0 0.0
2015-May-07 11:33N 43°41' E 010°16'0 0.0
2015-May-07 10:33N 43°41' E 010°16'6 6.1
2015-May-07 09:33N 43°45' E 010°10'1110.8
2015-May-07 08:34N 43°56' E 010°09'  

Dump ship's entire track history